createdAt,value
2023-02-25T00:02:07.142Z,4.60
2023-02-25T00:07:09.423Z,4.70
2023-02-25T00:12:11.575Z,4.70
2023-02-25T00:17:13.594Z,4.70
2023-02-25T00:22:15.505Z,4.80
2023-02-25T00:27:18.399Z,4.90
2023-02-25T00:32:21.360Z,4.90
2023-02-25T00:37:23.291Z,4.90
2023-02-25T00:42:25.034Z,4.90
2023-02-25T00:47:26.784Z,5.00
2023-02-25T00:52:28.503Z,4.90
2023-02-25T00:57:30.599Z,4.80
2023-02-25T01:02:32.386Z,4.90
2023-02-25T01:07:34.795Z,4.90
2023-02-25T01:12:37.106Z,4.90
2023-02-25T01:17:38.901Z,4.90
2023-02-25T01:22:41.942Z,4.90
2023-02-25T01:27:44.417Z,4.90
2023-02-25T01:32:46.223Z,4.90
2023-02-25T01:37:49.817Z,4.90
2023-02-25T01:42:51.543Z,5.00
2023-02-25T01:48:02.752Z,4.90
2023-02-25T01:53:05.955Z,4.90
2023-02-25T01:58:12.792Z,4.80
2023-02-25T02:03:17.888Z,4.80
2023-02-25T02:08:20.009Z,4.70
2023-02-25T02:13:21.833Z,4.60
2023-02-25T02:18:24.857Z,4.70
2023-02-25T02:23:45.160Z,4.70
2023-02-25T02:29:22.610Z,4.70
2023-02-25T02:34:40.794Z,4.60
2023-02-25T02:39:58.393Z,4.60
2023-02-25T02:45:25.988Z,4.60
2023-02-25T02:50:35.167Z,4.60
2023-02-25T02:55:41.465Z,4.50
2023-02-25T03:00:48.809Z,4.50
2023-02-25T03:05:53.234Z,4.50
2023-02-25T03:10:55.309Z,4.40
2023-02-25T03:16:00.049Z,4.40
2023-02-25T03:21:06.691Z,4.20
2023-02-25T03:26:28.944Z,2.90
2023-02-25T03:31:40.920Z,2.30
2023-02-25T03:36:51.070Z,2.50
2023-02-25T03:41:55.676Z,2.40
2023-02-25T03:46:59.111Z,2.40
2023-02-25T03:52:04.717Z,2.30
2023-02-25T03:57:06.689Z,2.40
2023-02-25T04:02:09.131Z,2.20
2023-02-25T04:07:10.947Z,2.30
2023-02-25T04:12:12.700Z,2.20
2023-02-25T04:17:14.478Z,2.20
2023-02-25T04:22:16.254Z,2.10
2023-02-25T04:27:18.155Z,2.30
2023-02-25T04:32:20.205Z,2.20
2023-02-25T04:37:22.088Z,2.30
2023-02-25T04:42:24.129Z,2.30
2023-02-25T04:47:26.145Z,2.50
2023-02-25T04:52:28.666Z,2.50
2023-02-25T04:57:30.560Z,2.50
2023-02-25T05:02:33.075Z,2.60
2023-02-25T05:07:34.849Z,2.60
2023-02-25T05:12:36.929Z,2.70
2023-02-25T05:17:38.975Z,2.70
2023-02-25T05:22:42.426Z,2.80
2023-02-25T05:27:44.305Z,2.90
2023-02-25T05:32:46.346Z,2.90
2023-02-25T05:37:48.239Z,3.00
2023-02-25T05:42:50.165Z,3.00
2023-02-25T05:47:51.955Z,3.00
2023-02-25T05:52:53.741Z,3.10
2023-02-25T05:57:55.431Z,3.10
2023-02-25T06:02:57.853Z,3.20
2023-02-25T06:08:00.722Z,3.20
2023-02-25T06:13:02.454Z,3.20
2023-02-25T06:18:04.321Z,3.20
2023-02-25T06:23:07.116Z,3.30
2023-02-25T06:28:09.483Z,3.40
2023-02-25T06:33:11.205Z,3.40
2023-02-25T06:38:12.952Z,3.40
2023-02-25T06:43:14.944Z,3.40
2023-02-25T06:48:16.765Z,3.50
2023-02-25T06:53:18.613Z,3.40
2023-02-25T06:58:20.449Z,3.50
2023-02-25T07:03:22.192Z,3.60
2023-02-25T07:08:24.730Z,3.60
2023-02-25T07:13:26.489Z,3.60
2023-02-25T07:18:28.322Z,3.60
2023-02-25T07:23:30.054Z,3.50
2023-02-25T07:28:32.068Z,3.40
2023-02-25T07:33:33.826Z,3.40
2023-02-25T07:38:35.759Z,3.50
2023-02-25T07:43:37.787Z,3.40
2023-02-25T07:48:39.791Z,3.30
2023-02-25T07:53:41.519Z,3.40
2023-02-25T07:58:43.467Z,3.30
2023-02-25T08:03:48.517Z,3.30
2023-02-25T08:08:55.220Z,3.40
2023-02-25T08:13:58.939Z,3.30
2023-02-25T08:19:00.766Z,3.30
2023-02-25T08:24:02.568Z,3.20
2023-02-25T08:29:04.756Z,3.20
2023-02-25T08:34:06.569Z,3.10
2023-02-25T08:39:09.247Z,2.70
2023-02-25T08:44:12.169Z,2.40
2023-02-25T08:49:13.989Z,2.40
2023-02-25T08:54:15.773Z,2.60
2023-02-25T08:59:17.925Z,2.60
2023-02-25T09:04:23.026Z,2.70
2023-02-25T09:09:25.358Z,2.70
2023-02-25T09:14:27.419Z,3.00
2023-02-25T09:19:29.578Z,3.10
2023-02-25T09:24:33.255Z,3.20
2023-02-25T09:29:35.807Z,3.30
2023-02-25T09:34:37.616Z,3.20
2023-02-25T09:39:39.710Z,3.40
2023-02-25T09:44:57.610Z,3.70
2023-02-25T09:50:07.373Z,3.70
2023-02-25T09:55:36.796Z,3.80
2023-02-25T10:00:47.157Z,3.80
2023-02-25T10:06:08.365Z,3.90
2023-02-25T10:11:31.895Z,4.00
2023-02-25T10:16:36.674Z,3.70
2023-02-25T10:21:53.506Z,3.40
2023-02-25T10:27:00.228Z,3.40
2023-02-25T10:32:17.426Z,3.50
2023-02-25T10:37:38.200Z,3.50
2023-02-25T10:42:40.166Z,3.40
2023-02-25T10:47:46.208Z,3.40
2023-02-25T10:52:57.535Z,3.60
2023-02-25T10:58:00.752Z,3.70
2023-02-25T11:03:05.178Z,3.90
2023-02-25T11:08:29.348Z,4.10
2023-02-25T11:13:34.994Z,4.00
2023-02-25T11:18:38.258Z,3.90
2023-02-25T11:23:43.309Z,4.30
2023-02-25T11:28:48.688Z,3.90
2023-02-25T11:33:59.256Z,4.20
2023-02-25T11:39:20.790Z,3.90
2023-02-25T11:44:39.122Z,4.20
2023-02-25T11:50:07.094Z,4.60
2023-02-25T11:55:20.896Z,4.20
2023-02-25T12:00:44.968Z,4.40
2023-02-25T12:06:06.866Z,4.40
2023-02-25T12:11:46.175Z,4.40
2023-02-25T12:16:59.802Z,4.70
2023-02-25T12:22:34.332Z,4.00
2023-02-25T12:27:36.298Z,4.00
2023-02-25T12:32:56.763Z,4.30
2023-02-25T12:38:46.148Z,3.90
2023-02-25T12:43:50.430Z,4.20
2023-02-25T12:49:22.327Z,4.00
2023-02-25T12:54:34.618Z,3.50
2023-02-25T13:00:10.245Z,3.80
2023-02-25T13:05:32.692Z,4.20
2023-02-25T13:10:51.478Z,4.10
2023-02-25T13:15:55.929Z,3.80
2023-02-25T13:21:00.335Z,4.10
2023-02-25T13:26:22.649Z,3.90
2023-02-25T13:31:30.994Z,4.10
2023-02-25T13:36:38.426Z,4.40
2023-02-25T13:41:55.188Z,4.10
2023-02-25T13:47:34.442Z,4.10
2023-02-25T13:52:57.935Z,4.00
2023-02-25T13:58:06.006Z,2.20
2023-02-25T14:03:25.851Z,2.40
2023-02-25T14:09:16.442Z,2.70
2023-02-25T14:14:21.158Z,2.80
2023-02-25T14:19:49.305Z,3.20
2023-02-25T14:24:57.452Z,2.90
2023-02-25T14:30:12.002Z,3.30
2023-02-25T14:35:22.953Z,3.10
2023-02-25T14:40:30.818Z,3.50
2023-02-25T14:45:53.786Z,3.70
2023-02-25T14:51:01.669Z,4.00
2023-02-25T14:56:44.785Z,4.10
2023-02-25T15:02:10.631Z,4.20
2023-02-25T15:07:20.604Z,4.00
2023-02-25T15:12:30.872Z,3.70
2023-02-25T15:18:23.414Z,2.90
2023-02-25T15:23:48.761Z,2.90
2023-02-25T15:28:54.964Z,2.60
2023-02-25T15:34:21.597Z,2.30
2023-02-25T15:39:41.855Z,2.40
2023-02-25T15:44:45.814Z,2.40
2023-02-25T15:49:48.895Z,2.50
2023-02-25T15:54:51.309Z,2.40
2023-02-25T15:59:58.198Z,2.40
2023-02-25T16:05:08.185Z,2.40
2023-02-25T16:10:18.638Z,2.50
2023-02-25T16:15:31.124Z,2.60
2023-02-25T16:20:46.542Z,2.50
2023-02-25T16:26:25.175Z,2.40
2023-02-25T16:31:32.976Z,2.50
2023-02-25T16:36:37.725Z,2.70
2023-02-25T16:41:39.976Z,2.70
2023-02-25T16:46:47.683Z,2.80
2023-02-25T16:51:52.853Z,2.80
2023-02-25T16:56:59.193Z,2.60
2023-02-25T17:02:05.547Z,2.60
2023-02-25T17:07:13.197Z,2.60
2023-02-25T17:12:25.959Z,2.50
2023-02-25T17:17:33.025Z,1.80
2023-02-25T17:22:37.867Z,1.80
2023-02-25T17:27:40.815Z,1.80
2023-02-25T17:32:45.084Z,1.80
2023-02-25T17:37:46.853Z,1.90
2023-02-25T17:42:48.659Z,1.80
2023-02-25T17:47:50.447Z,1.80
2023-02-25T17:52:52.362Z,1.70
2023-02-25T17:57:59.374Z,1.80
2023-02-25T18:03:18.049Z,1.80
2023-02-25T18:08:50.394Z,1.90
2023-02-25T18:13:52.659Z,1.90
2023-02-25T18:18:56.031Z,2.00
2023-02-25T18:23:59.349Z,2.10
2023-02-25T18:29:01.295Z,2.10
2023-02-25T18:34:03.183Z,2.10
2023-02-25T18:39:05.005Z,2.20
2023-02-25T18:44:13.735Z,2.20
2023-02-25T18:49:15.555Z,2.10
2023-02-25T18:54:17.563Z,2.10
2023-02-25T18:59:19.287Z,2.10
2023-02-25T19:04:21.039Z,2.20
2023-02-25T19:09:24.950Z,2.10
2023-02-25T19:14:26.843Z,2.00
2023-02-25T19:19:28.575Z,2.00
2023-02-25T19:24:30.276Z,1.70
2023-02-25T19:29:32.278Z,1.40
2023-02-25T19:34:33.986Z,1.50
2023-02-25T19:39:35.677Z,1.30
2023-02-25T19:44:38.001Z,1.20
2023-02-25T19:49:39.672Z,1.00
2023-02-25T19:54:41.653Z,0.90
2023-02-25T19:59:43.395Z,0.80
2023-02-25T20:04:45.203Z,0.80
2023-02-25T20:09:46.924Z,0.60
2023-02-25T20:14:48.812Z,0.60
2023-02-25T20:19:50.544Z,0.50
2023-02-25T20:24:52.250Z,0.50
2023-02-25T20:29:55.321Z,0.40
2023-02-25T20:34:57.881Z,0.40
2023-02-25T20:40:00.311Z,0.50
2023-02-25T20:45:02.519Z,0.50
2023-02-25T20:50:06.722Z,0.50
2023-02-25T20:55:09.013Z,0.70
2023-02-25T21:00:16.494Z,0.70
2023-02-25T21:05:18.491Z,0.70
2023-02-25T21:10:20.325Z,0.60
2023-02-25T21:15:22.212Z,0.60
2023-02-25T21:20:23.982Z,0.60
2023-02-25T21:25:25.899Z,0.70
2023-02-25T21:30:28.049Z,0.80
2023-02-25T21:35:31.269Z,0.80
2023-02-25T21:40:34.339Z,0.80
2023-02-25T21:45:36.211Z,0.80
2023-02-25T21:50:38.169Z,0.80
2023-02-25T21:55:40.166Z,0.80
2023-02-25T22:00:42.310Z,0.70
2023-02-25T22:05:46.361Z,0.80
2023-02-25T22:10:48.199Z,0.80
2023-02-25T22:15:50.378Z,0.70
2023-02-25T22:20:52.180Z,0.80
2023-02-25T22:25:54.233Z,0.70
2023-02-25T22:30:56.364Z,0.80
2023-02-25T22:36:00.804Z,0.80
2023-02-25T22:41:03.817Z,0.80
2023-02-25T22:46:08.401Z,1.00
2023-02-25T22:51:12.312Z,0.80
2023-02-25T22:56:15.757Z,0.80
2023-02-25T23:01:20.329Z,0.80
2023-02-25T23:06:34.167Z,0.70
2023-02-25T23:11:44.560Z,0.80
2023-02-25T23:16:46.547Z,0.80
2023-02-25T23:21:48.512Z,0.60
2023-02-25T23:26:53.678Z,0.60
2023-02-25T23:31:55.664Z,0.50
2023-02-25T23:36:57.863Z,0.50
2023-02-25T23:41:59.548Z,0.60
2023-02-25T23:47:01.861Z,0.50
2023-02-25T23:52:04.045Z,0.50
2023-02-25T23:57:06.677Z,0.40
